Startpagina
METAR-TAF:

METAR-TAF

Vliegvelden :

Vliegbasis Eindhoven

Eindhoven, Nederland

breedte: 51-27N, lengte: 005-25E, hoogte: 23 m

Actueel weer

Dit bericht is 34 minuten geleden gemaakt, om 01:55 UTC
Wind 5 kt uit het oostnoordoosten
Temperatuur 2°C
Vochtigheid 75%
Druk 1030 hPa
Zicht 10 km of meer

METAR: EHEH 180155Z AUTO 07005KT 9999 NCD 02/M02 Q1030 BLU

Tijdstip: 03:29 (02:29 UTC)

Verwachting

Dit bericht is 4 uur en het 2 minuten geleden gemaakt, om 22:27 UTC
Verwachting geldig van 18 om 00 UTC tot 19 om 06 UTC
Wind 9 kt uit het oostnoordoosten
Zicht 10 km of meer
geen wolken onder 1500 m en geen cumulonimbus
Wijzigt naar
van 18 om 22 UTC tot 19 om 00 UTC
Verspreide wolken op 1000 ft
Gebroken wolken op 1200 ft
Kans 30% :
Tijdelijke
van 18 om 23 UTC tot 19 om 06 UTC
Zicht: 3000 m
Verspreide wolken op 500 ft
Gebroken wolken op 800 ft
nevel

TAF: EHEH 172227Z 1800/1906 06009KT CAVOK BECMG 1822/1900 SCT010 BKN012 PROB30 TEMPO 1823/1906 3000 BR SCT005 BKN008

Waarnemingen en weersverwachtingen van meer dan 4000 vliegvelden (METAR en TAF).

De beschikbare stations zijn de gele en rode punten op de kaart.

Ga met uw muis naar het station om de naam te zien.

Klik dan om waarnemingen en weersverwachtingen te zien.

kaart wijzigen: klik op de groene knoppen met een zwart kruis om in te zoomen, op de groene knop met een streepje om uit te zoomen of op de groene pijlen voor aangrenzende kaarten.


METAR-TAF: